sensor_id;sensor_type;location;lat;lon;timestamp;P1;durP1;ratioP1;P2;durP2;ratioP2
20637;SDS011;10478;49.004;8.470;2023-03-01T00:02:19;18.45;;;8.27;;
20637;SDS011;10478;49.004;8.470;2023-03-01T00:04:45;16.60;;;7.57;;
20637;SDS011;10478;49.004;8.470;2023-03-01T00:07:12;16.10;;;8.18;;
20637;SDS011;10478;49.004;8.470;2023-03-01T00:09:37;15.60;;;8.65;;
20637;SDS011;10478;49.004;8.470;2023-03-01T00:12:03;24.40;;;8.98;;
20637;SDS011;10478;49.004;8.470;2023-03-01T00:14:29;21.10;;;9.07;;
20637;SDS011;10478;49.004;8.470;2023-03-01T00:16:54;19.23;;;8.50;;
20637;SDS011;10478;49.004;8.470;2023-03-01T00:19:20;14.13;;;8.32;;
20637;SDS011;10478;49.004;8.470;2023-03-01T00:21:46;19.02;;;8.25;;
20637;SDS011;10478;49.004;8.470;2023-03-01T00:24:12;18.27;;;8.55;;
20637;SDS011;10478;49.004;8.470;2023-03-01T00:26:38;17.67;;;7.97;;
20637;SDS011;10478;49.004;8.470;2023-03-01T00:29:03;15.82;;;7.43;;
20637;SDS011;10478;49.004;8.470;2023-03-01T00:31:30;22.20;;;8.32;;
20637;SDS011;10478;49.004;8.470;2023-03-01T00:33:57;15.75;;;8.27;;
20637;SDS011;10478;49.004;8.470;2023-03-01T00:36:25;18.55;;;8.32;;
20637;SDS011;10478;49.004;8.470;2023-03-01T00:38:51;21.20;;;8.35;;
20637;SDS011;10478;49.004;8.470;2023-03-01T00:41:18;19.55;;;8.75;;
20637;SDS011;10478;49.004;8.470;2023-03-01T00:43:44;15.68;;;7.55;;
20637;SDS011;10478;49.004;8.470;2023-03-01T00:46:11;21.02;;;8.63;;
20637;SDS011;10478;49.004;8.470;2023-03-01T00:48:38;21.90;;;7.97;;
20637;SDS011;10478;49.004;8.470;2023-03-01T00:51:11;15.10;;;7.78;;
20637;SDS011;10478;49.004;8.470;2023-03-01T00:53:37;17.73;;;9.07;;
20637;SDS011;10478;49.004;8.470;2023-03-01T00:56:03;14.48;;;8.25;;
20637;SDS011;10478;49.004;8.470;2023-03-01T00:58:29;14.77;;;7.78;;
20637;SDS011;10478;49.004;8.470;2023-03-01T01:00:55;19.42;;;8.93;;
20637;SDS011;10478;49.004;8.470;2023-03-01T01:03:20;16.40;;;8.02;;
20637;SDS011;10478;49.004;8.470;2023-03-01T01:05:46;19.05;;;7.32;;
20637;SDS011;10478;49.004;8.470;2023-03-01T01:08:12;13.15;;;7.55;;
20637;SDS011;10478;49.004;8.470;2023-03-01T01:10:37;16.80;;;8.02;;
20637;SDS011;10478;49.004;8.470;2023-03-01T01:13:03;22.27;;;9.10;;
20637;SDS011;10478;49.004;8.470;2023-03-01T01:15:28;16.75;;;8.25;;
20637;SDS011;10478;49.004;8.470;2023-03-01T01:17:54;25.15;;;9.55;;
20637;SDS011;10478;49.004;8.470;2023-03-01T01:20:20;18.27;;;9.05;;
20637;SDS011;10478;49.004;8.470;2023-03-01T01:22:46;18.95;;;9.40;;
20637;SDS011;10478;49.004;8.470;2023-03-01T01:25:11;15.80;;;8.10;;
20637;SDS011;10478;49.004;8.470;2023-03-01T01:27:36;23.55;;;9.40;;
20637;SDS011;10478;49.004;8.470;2023-03-01T01:30:02;16.48;;;7.47;;
20637;SDS011;10478;49.004;8.470;2023-03-01T01:32:28;16.38;;;8.95;;
20637;SDS011;10478;49.004;8.470;2023-03-01T01:34:54;21.17;;;9.23;;
20637;SDS011;10478;49.004;8.470;2023-03-01T01:37:19;20.75;;;9.05;;
20637;SDS011;10478;49.004;8.470;2023-03-01T01:39:45;18.63;;;8.05;;
20637;SDS011;10478;49.004;8.470;2023-03-01T01:42:14;22.10;;;8.93;;
20637;SDS011;10478;49.004;8.470;2023-03-01T01:44:42;17.90;;;9.55;;
20637;SDS011;10478;49.004;8.470;2023-03-01T01:47:11;15.70;;;8.70;;
20637;SDS011;10478;49.004;8.470;2023-03-01T01:49:45;20.48;;;8.82;;
20637;SDS011;10478;49.004;8.470;2023-03-01T01:52:23;15.40;;;8.07;;
20637;SDS011;10478;49.004;8.470;2023-03-01T01:55:00;23.25;;;10.25;;
20637;SDS011;10478;49.004;8.470;2023-03-01T01:57:27;19.42;;;9.40;;
20637;SDS011;10478;49.004;8.470;2023-03-01T01:59:59;22.92;;;8.95;;
20637;SDS011;10478;49.004;8.470;2023-03-01T02:02:28;14.45;;;7.97;;
20637;SDS011;10478;49.004;8.470;2023-03-01T02:04:55;18.80;;;9.30;;
20637;SDS011;10478;49.004;8.470;2023-03-01T02:07:28;19.00;;;7.80;;
20637;SDS011;10478;49.004;8.470;2023-03-01T02:09:54;20.15;;;9.25;;
20637;SDS011;10478;49.004;8.470;2023-03-01T02:12:23;22.95;;;9.48;;
20637;SDS011;10478;49.004;8.470;2023-03-01T02:14:49;19.58;;;8.95;;
20637;SDS011;10478;49.004;8.470;2023-03-01T02:17:15;16.17;;;8.93;;
20637;SDS011;10478;49.004;8.470;2023-03-01T02:19:44;19.33;;;9.15;;
20637;SDS011;10478;49.004;8.470;2023-03-01T02:22:28;18.73;;;8.55;;
20637;SDS011;10478;49.004;8.470;2023-03-01T02:27:40;18.67;;;9.43;;
20637;SDS011;10478;49.004;8.470;2023-03-01T02:30:12;15.73;;;9.00;;
20637;SDS011;10478;49.004;8.470;2023-03-01T02:32:39;18.83;;;9.30;;
20637;SDS011;10478;49.004;8.470;2023-03-01T02:35:06;24.27;;;10.35;;
20637;SDS011;10478;49.004;8.470;2023-03-01T02:37:33;19.17;;;9.82;;
20637;SDS011;10478;49.004;8.470;2023-03-01T02:40:02;20.15;;;9.70;;
20637;SDS011;10478;49.004;8.470;2023-03-01T02:42:30;20.50;;;8.93;;
20637;SDS011;10478;49.004;8.470;2023-03-01T02:44:59;18.02;;;9.60;;
20637;SDS011;10478;49.004;8.470;2023-03-01T02:47:24;20.55;;;9.75;;
20637;SDS011;10478;49.004;8.470;2023-03-01T02:49:49;21.02;;;9.18;;
20637;SDS011;10478;49.004;8.470;2023-03-01T02:52:36;16.27;;;8.02;;
20637;SDS011;10478;49.004;8.470;2023-03-01T02:55:09;22.52;;;9.13;;
20637;SDS011;10478;49.004;8.470;2023-03-01T02:57:37;16.92;;;9.13;;
20637;SDS011;10478;49.004;8.470;2023-03-01T03:00:08;17.40;;;9.48;;
20637;SDS011;10478;49.004;8.470;2023-03-01T03:02:35;19.15;;;8.65;;
20637;SDS011;10478;49.004;8.470;2023-03-01T03:05:11;14.95;;;8.88;;
20637;SDS011;10478;49.004;8.470;2023-03-01T03:07:39;26.42;;;10.57;;
20637;SDS011;10478;49.004;8.470;2023-03-01T03:10:06;18.60;;;9.63;;
20637;SDS011;10478;49.004;8.470;2023-03-01T03:12:36;19.30;;;10.30;;
20637;SDS011;10478;49.004;8.470;2023-03-01T03:15:02;18.08;;;9.02;;
20637;SDS011;10478;49.004;8.470;2023-03-01T03:17:33;20.08;;;9.63;;
20637;SDS011;10478;49.004;8.470;2023-03-01T03:20:03;21.80;;;10.27;;
20637;SDS011;10478;49.004;8.470;2023-03-01T03:22:29;26.40;;;10.57;;
20637;SDS011;10478;49.004;8.470;2023-03-01T03:24:55;19.20;;;10.35;;
20637;SDS011;10478;49.004;8.470;2023-03-01T03:27:20;19.02;;;9.07;;
20637;SDS011;10478;49.004;8.470;2023-03-01T03:29:45;25.48;;;10.50;;
20637;SDS011;10478;49.004;8.470;2023-03-01T03:32:11;23.00;;;9.70;;
20637;SDS011;10478;49.004;8.470;2023-03-01T03:34:36;19.45;;;9.70;;
20637;SDS011;10478;49.004;8.470;2023-03-01T03:37:01;19.58;;;8.93;;
20637;SDS011;10478;49.004;8.470;2023-03-01T03:39:28;23.45;;;10.15;;
20637;SDS011;10478;49.004;8.470;2023-03-01T03:41:53;22.63;;;9.93;;
20637;SDS011;10478;49.004;8.470;2023-03-01T03:44:19;26.23;;;10.50;;
20637;SDS011;10478;49.004;8.470;2023-03-01T03:46:45;20.45;;;9.48;;
20637;SDS011;10478;49.004;8.470;2023-03-01T03:49:10;23.50;;;10.40;;
20637;SDS011;10478;49.004;8.470;2023-03-01T03:51:36;19.65;;;10.30;;
20637;SDS011;10478;49.004;8.470;2023-03-01T03:54:01;22.08;;;10.13;;
20637;SDS011;10478;49.004;8.470;2023-03-01T03:56:27;19.33;;;9.82;;
20637;SDS011;10478;49.004;8.470;2023-03-01T03:58:52;21.58;;;10.25;;
20637;SDS011;10478;49.004;8.470;2023-03-01T04:01:18;26.15;;;11.60;;
20637;SDS011;10478;49.004;8.470;2023-03-01T04:03:43;21.92;;;10.68;;
20637;SDS011;10478;49.004;8.470;2023-03-01T04:06:12;25.13;;;11.02;;
20637;SDS011;10478;49.004;8.470;2023-03-01T04:08:38;23.45;;;10.77;;
20637;SDS011;10478;49.004;8.470;2023-03-01T04:11:04;19.27;;;9.85;;
20637;SDS011;10478;49.004;8.470;2023-03-01T04:13:49;25.58;;;10.77;;
20637;SDS011;10478;49.004;8.470;2023-03-01T04:16:15;19.38;;;9.73;;
20637;SDS011;10478;49.004;8.470;2023-03-01T04:18:42;20.17;;;10.82;;
20637;SDS011;10478;49.004;8.470;2023-03-01T04:21:08;25.23;;;10.23;;
20637;SDS011;10478;49.004;8.470;2023-03-01T04:23:33;20.50;;;9.95;;
20637;SDS011;10478;49.004;8.470;2023-03-01T04:25:58;20.08;;;10.95;;
20637;SDS011;10478;49.004;8.470;2023-03-01T04:30:51;24.52;;;11.75;;
20637;SDS011;10478;49.004;8.470;2023-03-01T04:33:17;20.17;;;10.80;;
20637;SDS011;10478;49.004;8.470;2023-03-01T04:35:43;20.15;;;10.82;;
20637;SDS011;10478;49.004;8.470;2023-03-01T04:38:08;29.25;;;11.07;;
20637;SDS011;10478;49.004;8.470;2023-03-01T04:40:34;18.02;;;9.45;;
20637;SDS011;10478;49.004;8.470;2023-03-01T04:42:59;19.33;;;9.80;;
20637;SDS011;10478;49.004;8.470;2023-03-01T04:45:25;24.35;;;10.85;;
20637;SDS011;10478;49.004;8.470;2023-03-01T04:47:51;25.85;;;11.45;;
20637;SDS011;10478;49.004;8.470;2023-03-01T04:50:19;28.67;;;12.25;;
20637;SDS011;10478;49.004;8.470;2023-03-01T04:52:45;25.90;;;11.30;;
20637;SDS011;10478;49.004;8.470;2023-03-01T04:55:11;25.60;;;11.27;;
20637;SDS011;10478;49.004;8.470;2023-03-01T04:57:37;24.25;;;11.25;;
20637;SDS011;10478;49.004;8.470;2023-03-01T05:00:03;24.30;;;11.35;;
20637;SDS011;10478;49.004;8.470;2023-03-01T05:05:14;20.10;;;10.80;;
20637;SDS011;10478;49.004;8.470;2023-03-01T05:07:40;21.35;;;11.63;;
20637;SDS011;10478;49.004;8.470;2023-03-01T05:10:05;27.92;;;12.02;;
20637;SDS011;10478;49.004;8.470;2023-03-01T05:12:31;19.35;;;10.38;;
20637;SDS011;10478;49.004;8.470;2023-03-01T05:59:12;23.35;;;11.00;;
20637;SDS011;10478;49.004;8.470;2023-03-01T06:01:38;23.88;;;11.20;;
20637;SDS011;10478;49.004;8.470;2023-03-01T06:04:04;19.35;;;10.77;;
20637;SDS011;10478;49.004;8.470;2023-03-01T06:06:29;27.13;;;12.15;;
20637;SDS011;10478;49.004;8.470;2023-03-01T06:08:58;31.38;;;13.32;;
20637;SDS011;10478;49.004;8.470;2023-03-01T06:11:23;20.83;;;10.65;;
20637;SDS011;10478;49.004;8.470;2023-03-01T06:13:49;22.75;;;11.25;;
20637;SDS011;10478;49.004;8.470;2023-03-01T06:16:14;26.00;;;12.25;;
20637;SDS011;10478;49.004;8.470;2023-03-01T06:18:40;22.27;;;11.60;;
20637;SDS011;10478;49.004;8.470;2023-03-01T06:21:06;26.40;;;12.75;;
20637;SDS011;10478;49.004;8.470;2023-03-01T06:23:32;26.08;;;11.93;;
20637;SDS011;10478;49.004;8.470;2023-03-01T06:25:57;23.10;;;10.43;;
20637;SDS011;10478;49.004;8.470;2023-03-01T06:28:23;23.02;;;11.13;;
20637;SDS011;10478;49.004;8.470;2023-03-01T06:30:49;29.10;;;12.38;;
20637;SDS011;10478;49.004;8.470;2023-03-01T06:33:15;28.80;;;13.75;;
20637;SDS011;10478;49.004;8.470;2023-03-01T06:35:40;26.02;;;11.45;;
20637;SDS011;10478;49.004;8.470;2023-03-01T06:38:06;29.02;;;12.88;;
20637;SDS011;10478;49.004;8.470;2023-03-01T06:40:31;27.95;;;11.23;;
20637;SDS011;10478;49.004;8.470;2023-03-01T06:42:57;26.30;;;12.15;;
20637;SDS011;10478;49.004;8.470;2023-03-01T06:45:23;26.50;;;11.85;;
20637;SDS011;10478;49.004;8.470;2023-03-01T06:47:49;31.85;;;13.07;;
20637;SDS011;10478;49.004;8.470;2023-03-01T06:50:14;26.08;;;12.23;;
20637;SDS011;10478;49.004;8.470;2023-03-01T06:52:40;26.25;;;11.65;;
20637;SDS011;10478;49.004;8.470;2023-03-01T06:55:06;29.90;;;13.40;;
20637;SDS011;10478;49.004;8.470;2023-03-01T06:57:32;26.98;;;12.18;;
20637;SDS011;10478;49.004;8.470;2023-03-01T06:59:57;26.17;;;11.73;;
20637;SDS011;10478;49.004;8.470;2023-03-01T07:02:23;30.92;;;12.25;;
20637;SDS011;10478;49.004;8.470;2023-03-01T07:04:49;27.85;;;12.32;;
20637;SDS011;10478;49.004;8.470;2023-03-01T07:07:15;31.02;;;13.20;;
20637;SDS011;10478;49.004;8.470;2023-03-01T07:09:42;30.55;;;14.05;;
20637;SDS011;10478;49.004;8.470;2023-03-01T07:12:08;32.55;;;13.45;;
20637;SDS011;10478;49.004;8.470;2023-03-01T07:14:34;24.92;;;12.35;;
20637;SDS011;10478;49.004;8.470;2023-03-01T07:16:59;30.60;;;12.23;;
20637;SDS011;10478;49.004;8.470;2023-03-01T07:19:24;25.77;;;12.25;;
20637;SDS011;10478;49.004;8.470;2023-03-01T07:21:50;27.90;;;12.25;;
20637;SDS011;10478;49.004;8.470;2023-03-01T07:24:15;28.17;;;12.00;;
20637;SDS011;10478;49.004;8.470;2023-03-01T07:26:40;28.60;;;13.18;;
20637;SDS011;10478;49.004;8.470;2023-03-01T07:29:06;27.25;;;12.20;;
20637;SDS011;10478;49.004;8.470;2023-03-01T07:31:32;30.13;;;13.13;;
20637;SDS011;10478;49.004;8.470;2023-03-01T07:33:57;32.10;;;14.93;;
20637;SDS011;10478;49.004;8.470;2023-03-01T07:36:23;23.90;;;12.05;;
20637;SDS011;10478;49.004;8.470;2023-03-01T07:38:49;29.58;;;13.52;;
20637;SDS011;10478;49.004;8.470;2023-03-01T07:41:14;28.30;;;13.02;;
20637;SDS011;10478;49.004;8.470;2023-03-01T07:43:40;28.15;;;11.63;;
20637;SDS011;10478;49.004;8.470;2023-03-01T07:46:05;30.48;;;12.82;;
20637;SDS011;10478;49.004;8.470;2023-03-01T07:48:32;33.13;;;13.63;;
20637;SDS011;10478;49.004;8.470;2023-03-01T07:51:02;28.33;;;12.13;;
20637;SDS011;10478;49.004;8.470;2023-03-01T07:53:29;31.20;;;14.90;;
20637;SDS011;10478;49.004;8.470;2023-03-01T07:56:06;29.05;;;13.95;;
20637;SDS011;10478;49.004;8.470;2023-03-01T07:58:33;29.02;;;13.27;;
20637;SDS011;10478;49.004;8.470;2023-03-01T08:01:03;28.65;;;12.23;;
20637;SDS011;10478;49.004;8.470;2023-03-01T08:03:29;29.35;;;12.32;;
20637;SDS011;10478;49.004;8.470;2023-03-01T08:05:55;30.70;;;13.50;;
20637;SDS011;10478;49.004;8.470;2023-03-01T08:08:20;30.70;;;13.32;;
20637;SDS011;10478;49.004;8.470;2023-03-01T08:10:46;26.52;;;12.95;;
20637;SDS011;10478;49.004;8.470;2023-03-01T08:13:11;27.33;;;12.50;;
20637;SDS011;10478;49.004;8.470;2023-03-01T08:15:36;31.58;;;15.25;;
20637;SDS011;10478;49.004;8.470;2023-03-01T08:18:02;29.83;;;12.13;;
20637;SDS011;10478;49.004;8.470;2023-03-01T08:20:27;28.08;;;12.68;;
20637;SDS011;10478;49.004;8.470;2023-03-01T08:22:52;26.83;;;13.23;;
20637;SDS011;10478;49.004;8.470;2023-03-01T08:25:18;26.80;;;14.00;;
20637;SDS011;10478;49.004;8.470;2023-03-01T08:27:43;28.73;;;13.43;;
20637;SDS011;10478;49.004;8.470;2023-03-01T08:30:08;29.40;;;13.45;;
20637;SDS011;10478;49.004;8.470;2023-03-01T08:32:38;29.05;;;12.80;;
20637;SDS011;10478;49.004;8.470;2023-03-01T08:35:03;29.58;;;13.88;;
20637;SDS011;10478;49.004;8.470;2023-03-01T08:37:29;35.00;;;14.18;;
20637;SDS011;10478;49.004;8.470;2023-03-01T08:39:55;27.40;;;13.65;;
20637;SDS011;10478;49.004;8.470;2023-03-01T08:42:21;24.88;;;13.73;;
20637;SDS011;10478;49.004;8.470;2023-03-01T08:44:46;36.45;;;13.75;;
20637;SDS011;10478;49.004;8.470;2023-03-01T08:47:11;25.83;;;13.48;;
20637;SDS011;10478;49.004;8.470;2023-03-01T08:49:37;36.20;;;14.60;;
20637;SDS011;10478;49.004;8.470;2023-03-01T08:52:02;30.73;;;13.77;;
20637;SDS011;10478;49.004;8.470;2023-03-01T08:54:28;32.28;;;14.32;;
20637;SDS011;10478;49.004;8.470;2023-03-01T08:56:53;30.52;;;12.70;;
20637;SDS011;10478;49.004;8.470;2023-03-01T08:59:19;27.90;;;12.57;;
20637;SDS011;10478;49.004;8.470;2023-03-01T09:01:44;32.08;;;14.48;;
20637;SDS011;10478;49.004;8.470;2023-03-01T09:04:10;31.38;;;14.45;;
20637;SDS011;10478;49.004;8.470;2023-03-01T09:06:36;33.22;;;13.70;;
20637;SDS011;10478;49.004;8.470;2023-03-01T09:09:02;29.27;;;14.70;;
20637;SDS011;10478;49.004;8.470;2023-03-01T09:11:29;33.35;;;14.93;;
20637;SDS011;10478;49.004;8.470;2023-03-01T09:13:54;38.40;;;15.50;;
20637;SDS011;10478;49.004;8.470;2023-03-01T09:16:20;35.35;;;15.48;;
20637;SDS011;10478;49.004;8.470;2023-03-01T09:18:50;36.10;;;13.95;;
20637;SDS011;10478;49.004;8.470;2023-03-01T09:21:17;30.60;;;14.10;;
20637;SDS011;10478;49.004;8.470;2023-03-01T09:23:43;29.63;;;14.00;;
20637;SDS011;10478;49.004;8.470;2023-03-01T09:26:12;26.33;;;13.52;;
20637;SDS011;10478;49.004;8.470;2023-03-01T09:28:41;34.80;;;15.02;;
20637;SDS011;10478;49.004;8.470;2023-03-01T09:31:06;29.25;;;14.73;;
20637;SDS011;10478;49.004;8.470;2023-03-01T09:33:32;29.95;;;14.00;;
20637;SDS011;10478;49.004;8.470;2023-03-01T09:35:58;29.70;;;13.30;;
20637;SDS011;10478;49.004;8.470;2023-03-01T09:38:25;36.00;;;15.35;;
20637;SDS011;10478;49.004;8.470;2023-03-01T09:40:50;29.17;;;13.43;;
20637;SDS011;10478;49.004;8.470;2023-03-01T09:46:06;32.85;;;15.48;;
20637;SDS011;10478;49.004;8.470;2023-03-01T09:48:37;28.25;;;13.57;;
20637;SDS011;10478;49.004;8.470;2023-03-01T09:51:08;28.38;;;13.98;;
20637;SDS011;10478;49.004;8.470;2023-03-01T09:53:38;35.33;;;14.55;;
20637;SDS011;10478;49.004;8.470;2023-03-01T09:56:05;29.83;;;14.57;;
20637;SDS011;10478;49.004;8.470;2023-03-01T09:58:45;34.72;;;15.40;;
20637;SDS011;10478;49.004;8.470;2023-03-01T10:01:24;35.55;;;15.35;;
20637;SDS011;10478;49.004;8.470;2023-03-01T10:04:02;31.63;;;15.10;;
20637;SDS011;10478;49.004;8.470;2023-03-01T10:06:34;32.13;;;15.43;;
20637;SDS011;10478;49.004;8.470;2023-03-01T10:09:07;27.77;;;14.48;;
20637;SDS011;10478;49.004;8.470;2023-03-01T10:11:36;30.92;;;14.45;;
20637;SDS011;10478;49.004;8.470;2023-03-01T10:16:43;31.10;;;14.68;;
20637;SDS011;10478;49.004;8.470;2023-03-01T10:19:15;30.88;;;14.52;;
20637;SDS011;10478;49.004;8.470;2023-03-01T10:21:45;29.63;;;14.40;;
20637;SDS011;10478;49.004;8.470;2023-03-01T10:24:13;32.25;;;15.32;;
20637;SDS011;10478;49.004;8.470;2023-03-01T10:26:46;31.60;;;15.82;;
20637;SDS011;10478;49.004;8.470;2023-03-01T12:59:51;26.83;;;14.02;;
20637;SDS011;10478;49.004;8.470;2023-03-01T13:02:25;27.85;;;14.32;;
20637;SDS011;10478;49.004;8.470;2023-03-01T13:08:01;32.78;;;14.65;;
20637;SDS011;10478;49.004;8.470;2023-03-01T13:10:36;31.65;;;15.13;;
20637;SDS011;10478;49.004;8.470;2023-03-01T13:13:26;33.65;;;15.57;;
20637;SDS011;10478;49.004;8.470;2023-03-01T13:15:52;27.77;;;14.98;;
20637;SDS011;10478;49.004;8.470;2023-03-01T13:20:53;32.33;;;14.85;;
20637;SDS011;10478;49.004;8.470;2023-03-01T13:26:18;27.25;;;13.32;;
20637;SDS011;10478;49.004;8.470;2023-03-01T13:28:55;29.85;;;14.15;;
20637;SDS011;10478;49.004;8.470;2023-03-01T13:33:50;30.55;;;15.52;;
20637;SDS011;10478;49.004;8.470;2023-03-01T13:47:18;28.48;;;14.32;;
20637;SDS011;10478;49.004;8.470;2023-03-01T13:49:48;30.30;;;15.93;;
20637;SDS011;10478;49.004;8.470;2023-03-01T13:55:24;29.15;;;13.55;;
20637;SDS011;10478;49.004;8.470;2023-03-01T13:57:55;23.98;;;13.80;;
20637;SDS011;10478;49.004;8.470;2023-03-01T14:00:38;23.50;;;13.65;;
20637;SDS011;10478;49.004;8.470;2023-03-01T14:03:15;33.38;;;15.13;;
